Mentone, CA (92359)

3:45 AM PDT on April 28, 2017 (GMT -0700)
East of U of R | | Change Station
Active Advisory: High Wind Watch

Elev 1539 ft 34.06 °N, 117.15 °W | Updated 9 seconds ago

Clear
Clear
65.7 °F
Feels Like 65.7 °F
N
14.5
Wind Variable Wind from WNW

Today
High -- | Low -- °F
--% Chance of Precip.
Yesterday
High -- | Low -- °F
Precip. -- in
Pressure 29.74 in
Visibility 10.0 miles
Clouds Clear
Dew Point 33 °F
Humidity 29%
Rainfall 0.00 in
Snow Depth Not available.
6:02 AM 7:30 PM
Waxing Crescent, 6% visible
METAR KSBD 281038Z AUTO 01011G15KT 10SM CLR 20/M03 A2974 RMK AO2 T01961026
Pressure 29.74 in
Visibility 10.0 miles
Clouds Clear
Dew Point 33 °F
Humidity 29%
Rainfall 0.00 in
Snow Depth Not available.
6:02 AM 7:30 PM
Waxing Crescent, 6% visible
METAR KSBD 281038Z AUTO 01011G15KT 10SM CLR 20/M03 A2974 RMK AO2 T01961026

Get Your Daily Forecast Email!

Thanks for signing up!

Be on the lookout for a verification email in your inbox.

You'll start receiving severe weather alerts in your inbox..

×

10-Day Weather Forecast

Almanac

Astronomy

Apr. 28, 2017 Rise Set
Actual Time
Civil Twilight
Nautical Twilight
Astronomical Twilight
Moon
Length of Visible Light
Length of Day
Tomorrow will be .
, % of the Moon is Illuminated

Today's Extremes

State Highs State Lows

Community

WunderPhotos

WunderBlog® & News

Nearby

Air Quality

  Air Quality AQ Index Pollutant
Not available.

Snow Depth

Station Depth Elevation

Earthquake Activity

City Distance Mag. Time & Date
Minimum magnitude displayed is 2.5.

Coastal Water Temperatures

Place Temperature

Stations

Nearby Weather Stations

Station Location Temp. Windchill Dew Point Humidity Wind Precip. Elev Updated Type
                   

Watches & Warnings

High Wind Watch
Issued: 9:15 PM PDT Apr. 27, 2017 – National Weather Service

... High wind watch remains in effect from Friday evening through
Saturday afternoon...

* winds... northeast winds 15 to 30 mph Friday, increasing to 25 to
35 mph with gusts from 50 to 60 mph.

* Timing... from late evening Friday through midday Saturday.

* Location... I-15 through the Cajon Pass into the inland Empire.
The Santa Ana Mountains and foothills into parts of inland
Orange County.

* Impacts... sudden, strong cross- winds, especially for high-
profile vehicles. Possible tree and utility line damage. Downed
Palm fronds.

* Outlook... winds will diminish rapidly Saturday afternoon.

Precautionary/preparedness actions...

A high wind watch means there is the potential for a hazardous
high wind event. Sustained winds of at least 40 mph... or gusts
of 58 mph or stronger may occur. Continue to monitor the latest
forecasts.



Moede